AirNav   Everest Fuels
 
 1191 users online  

13WI Nowatzski Field Airport
Markesan, Wisconsin, USA

GOING TO MARKESAN?


FAA INFORMATION EFFECTIVE 26 MARCH 2020

Location

FAA Identifier: 13WI
Lat/Long: 43-41-54.3500N 089-00-16.4800W
43-41.905833N 089-00.274667W
43.6984306,-89.0045778
(estimated)
Elevation: 920 ft. / 280 m (estimated)
Variation: 00W (1985)
From city: 1 mile SW of MARKESAN, WI
Time zone: UTC -5 (UTC -6 during Standard Time)
Zip code: 53946

Airport Operations

Airport use: Private use. Permission required prior to landing
Activation date: 06/1978
Control tower: no
ARTCC: CHICAGO CENTER
FSS: GREEN BAY FLIGHT SERVICE STATION
Attendance: UNATNDD
Wind indicator: yes
Segmented circle: no
Lights: ACTVT LIRL RWY 18/36 & 09/27 - 122.75
Beacon: white-green (lighted land airport)

Nearby radio navigation aids

VOR radial/distance  VOR name  Freq  Var
OSHr226/26.2OSHKOSH VORTAC116.7502E
DLLr072/34.1DELLS VORTAC117.0003E
MSNr021/36.3MADISON VORTAC108.6003E

 
NDB name  Hdg/Dist  Freq  Var  ID
JUNEAU322/20.834401WUNU ..- -. ..-
ROCK RIVER340/33.837101WRYV .-. -.-- ...-

Airport Services

Runway Information

Runway 9/27

Dimensions: 3000 x 70 ft. / 914 x 21 m
Surface: asphalt
Runway edge lights: low intensity
RUNWAY 9  RUNWAY 27
Traffic pattern: rightleft

Runway 18/36

Dimensions: 2500 x 70 ft. / 762 x 21 m
Surface: asphalt
Runway edge lights: low intensity
RUNWAY 18  RUNWAY 36
Traffic pattern: rightleft

Airport Ownership and Management from official FAA records

Ownership: Privately-owned
Owner: DCCM, LLC
PO BOX 183
MARKESAN, WI 53946
Phone 920-896-2494
Manager: DAVID ABENDROTH
608 AIRPORT DRIVE
MARKESAN, WI 53946
Phone 920-896-2494

Airport Operational Statistics

Aircraft based on the field: 5
Single engine airplanes: 3
Ultralights: 2
    

Additional Remarks

AIR-TO-AIR FREQ: 122.75
FOR CD CTC CHICAGO ARTCC AT 630-906-8921.

Instrument Procedures

There are no published instrument procedures at 13WI.

Some nearby airports with instrument procedures:

KUNU - Dodge County Airport (21 nm SE)
C47 - Portage Municipal Airport (22 nm W)
KFLD - Fond Du Lac County Airport (23 nm E)
Y50 - Wautoma Municipal Airport (24 nm NW)
KOSH - Wittman Regional Airport (26 nm NE)
 
Loc | Ops | Rwys | IFR | FBO | Links
Com | Nav | Svcs | Stats | Notes
Area around 13WI (Nowatzski Field Airport)
 
Road maps at: MapQuest Bing Google
 
Aerial photo
WARNING: Photo may not be current or correct
Aerial photo of 13WI (Nowatzski Field Airport)
Photo by Craig Kozak
Photo taken 11-Sep-2009

Do you have a better or more recent aerial photo of Nowatzski Field Airport that you would like to share? If so, please send us your photo.

 
Sectional chart

 
Airport distance calculator
Flying to Nowatzski Field Airport? Find the distance to fly.

From to 13WI

Sunrise and sunset
Times for 30-Mar-2020
 Local
(UTC-5)
 Zulu
(UTC)
Morning civil twilight06:1111:11
Sunrise06:4011:40
Sunset19:2000:20
Evening civil twilight19:4900:49

Current date and time
Zulu (UTC)  30-Mar-2020 18:50:31
Local (UTC-5)  30-Mar-2020 13:50:31
 
METAR
KUNU 
21nm SE 
301835Z AUTO 34011G19KT 10SM OVC040 08/00 A3013 RMK AO2 T00770001
KFLD 
23nm E 
301753Z AUTO 34013KT 10SM OVC040 08/01 A3013 RMK AO2 SLP208 T00830006 10083 20039 50007
KY50 
24nm NW 
301756Z AUTO 36015G20KT 10SM 11/00 A3014 RMK AO2 SLP211 6//// T01060000 10106 20039 50004 $
KOSH 
25nm NE 
301753Z 33013G21KT 10SM BKN040 09/01 A3012 RMK AO2 SLP206 T00890011 10089 20039 50008
KRYV 
34nm S 
301835Z AUTO 35010G18KT 10SM OVC039 08/01 A3012 RMK AO2 T00820008
KDLL 
35nm W 
301835Z AUTO 35008G18KT 10SM CLR 10/00 A3014 RMK AO2 T00990002
KMSN 
37nm SW 
301753Z 35016G24KT 10SM BKN041 10/01 A3013 RMK AO2 SLP209 T01000006 10100 20033 58000
KPCZ 
38nm N 
301835Z AUTO 34014G22KT 10SM SCT049 12/M01 A3013 RMK AO2 T01231009
KATW 
39nm NE 
301745Z 33013G21KT 10SM BKN033 08/M02 A3010
KETB 
41nm SE 
301835Z AUTO 30011KT 10SM BKN035 OVC041 06/00 A3011 RMK AO2
TAF
NOTAMs
Click for the latest NOTAMs
NOTAMs are issued by the DoD/FAA and will open in a separate window not controlled by AirNav.

 

 
 

Would you like to see your business listed on this page?

 If your business provides an interesting product or service to pilots, flight crews, aircraft, or users of the Nowatzski Field Airport, you should consider listing it here.  To start the listing process, click on the button below
 
Add a business
 

Other Pages about Nowatzski Field Airport

Update a link
 
Copyright © AirNav, LLC. All rights reserved. Privacy Policy  Contact